sensor_id;sensor_type;location;lat;lon;timestamp;pressure;altitude;pressure_sealevel;temperature;humidity
77106;BME280;66057;54.718;18.426;2023-05-16T00:01:35;100065.81;;;11.91;56.58
77106;BME280;66057;54.718;18.426;2023-05-16T00:04:02;100063.97;;;11.86;57.71
77106;BME280;66057;54.718;18.426;2023-05-16T00:06:28;100051.94;;;11.86;57.38
77106;BME280;66057;54.718;18.426;2023-05-16T00:08:55;100059.69;;;11.86;57.47
77106;BME280;66057;54.718;18.426;2023-05-16T00:11:20;100058.78;;;11.84;57.55
77106;BME280;66057;54.718;18.426;2023-05-16T00:13:46;100059.56;;;11.82;57.70
77106;BME280;66057;54.718;18.426;2023-05-16T00:16:16;100058.09;;;11.91;57.04
77106;BME280;66057;54.718;18.426;2023-05-16T00:18:42;100053.84;;;11.93;57.63
77106;BME280;66057;54.718;18.426;2023-05-16T00:21:15;100058.91;;;11.90;56.38
77106;BME280;66057;54.718;18.426;2023-05-16T00:23:41;100053.69;;;11.87;57.44
77106;BME280;66057;54.718;18.426;2023-05-16T00:26:07;100049.44;;;11.88;56.56
77106;BME280;66057;54.718;18.426;2023-05-16T00:28:33;100053.66;;;11.84;56.39
77106;BME280;66057;54.718;18.426;2023-05-16T00:30:59;100050.88;;;11.76;56.31
77106;BME280;66057;54.718;18.426;2023-05-16T00:33:28;100048.09;;;11.70;57.22
77106;BME280;66057;54.718;18.426;2023-05-16T00:35:59;100045.38;;;11.64;57.91
77106;BME280;66057;54.718;18.426;2023-05-16T00:38:26;100048.69;;;11.59;59.19
77106;BME280;66057;54.718;18.426;2023-05-16T00:40:54;100044.28;;;11.55;59.69
77106;BME280;66057;54.718;18.426;2023-05-16T00:43:23;100044.19;;;11.52;60.47
77106;BME280;66057;54.718;18.426;2023-05-16T00:45:50;100040.75;;;11.51;61.87
77106;BME280;66057;54.718;18.426;2023-05-16T00:48:17;100029.50;;;11.48;62.07
77106;BME280;66057;54.718;18.426;2023-05-16T00:50:55;100031.19;;;11.46;61.76
77106;BME280;66057;54.718;18.426;2023-05-16T00:53:40;100033.78;;;11.46;60.15
77106;BME280;66057;54.718;18.426;2023-05-16T00:56:26;100027.81;;;11.48;59.04
77106;BME280;66057;54.718;18.426;2023-05-16T00:58:53;100030.44;;;11.50;57.69
77106;BME280;66057;54.718;18.426;2023-05-16T01:01:19;100030.44;;;11.50;57.34
77106;BME280;66057;54.718;18.426;2023-05-16T01:03:48;100026.16;;;11.50;57.04
77106;BME280;66057;54.718;18.426;2023-05-16T01:06:17;100033.00;;;11.50;56.85
77106;BME280;66057;54.718;18.426;2023-05-16T01:08:43;100030.59;;;11.56;56.56
77106;BME280;66057;54.718;18.426;2023-05-16T01:11:26;100024.75;;;11.63;55.72
77106;BME280;66057;54.718;18.426;2023-05-16T01:20:44;100029.78;;;11.58;56.59
77106;BME280;66057;54.718;18.426;2023-05-16T01:23:16;100028.97;;;11.59;56.38
77106;BME280;66057;54.718;18.426;2023-05-16T01:28:15;100029.72;;;11.55;55.75
77106;BME280;66057;54.718;18.426;2023-05-16T01:30:41;100024.53;;;11.54;56.34
77106;BME280;66057;54.718;18.426;2023-05-16T01:33:08;100025.41;;;11.54;56.29
77106;BME280;66057;54.718;18.426;2023-05-16T01:35:40;100029.78;;;11.58;56.10
77106;BME280;66057;54.718;18.426;2023-05-16T01:38:24;100025.44;;;11.56;56.27
77106;BME280;66057;54.718;18.426;2023-05-16T01:41:15;100029.78;;;11.58;56.51
77106;BME280;66057;54.718;18.426;2023-05-16T01:43:47;100023.81;;;11.61;56.41
77106;BME280;66057;54.718;18.426;2023-05-16T01:46:15;100019.53;;;11.60;55.88
77106;BME280;66057;54.718;18.426;2023-05-16T01:49:04;100017.84;;;11.60;55.96
77106;BME280;66057;54.718;18.426;2023-05-16T01:51:44;100028.03;;;11.57;56.88
77106;BME280;66057;54.718;18.426;2023-05-16T01:54:23;100025.44;;;11.56;57.05
77106;BME280;66057;54.718;18.426;2023-05-16T01:56:53;100022.06;;;11.58;57.03
77106;BME280;66057;54.718;18.426;2023-05-16T01:59:31;100018.63;;;11.58;57.76
77106;BME280;66057;54.718;18.426;2023-05-16T02:02:09;100022.13;;;11.60;57.28
77106;BME280;66057;54.718;18.426;2023-05-16T02:05:04;100020.53;;;11.65;58.06
77106;BME280;66057;54.718;18.426;2023-05-16T02:07:34;100023.09;;;11.65;57.48
77106;BME280;66057;54.718;18.426;2023-05-16T02:10:04;100017.03;;;11.63;57.19
77106;BME280;66057;54.718;18.426;2023-05-16T02:12:33;100021.41;;;11.65;57.80
77106;BME280;66057;54.718;18.426;2023-05-16T02:15:00;100013.56;;;11.62;56.70
77106;BME280;66057;54.718;18.426;2023-05-16T02:17:29;100015.25;;;11.60;57.85
77106;BME280;66057;54.718;18.426;2023-05-16T02:19:58;100011.72;;;11.57;57.12
77106;BME280;66057;54.718;18.426;2023-05-16T02:22:34;100016.00;;;11.56;56.90
77106;BME280;66057;54.718;18.426;2023-05-16T02:25:01;100022.00;;;11.55;57.23
77106;BME280;66057;54.718;18.426;2023-05-16T02:27:28;100022.88;;;11.57;57.24
77106;BME280;66057;54.718;18.426;2023-05-16T02:29:54;100023.81;;;11.61;56.76
77106;BME280;66057;54.718;18.426;2023-05-16T02:32:26;100016.91;;;11.58;56.63
77106;BME280;66057;54.718;18.426;2023-05-16T02:34:52;100017.75;;;11.57;56.63
77106;BME280;66057;54.718;18.426;2023-05-16T02:37:23;100015.16;;;11.56;56.82
77106;BME280;66057;54.718;18.426;2023-05-16T02:39:52;100026.34;;;11.58;56.97
77106;BME280;66057;54.718;18.426;2023-05-16T02:42:21;100027.16;;;11.57;57.51
77106;BME280;66057;54.718;18.426;2023-05-16T02:44:47;100028.97;;;11.59;57.88
77106;BME280;66057;54.718;18.426;2023-05-16T02:47:22;100034.09;;;11.59;58.40
77106;BME280;66057;54.718;18.426;2023-05-16T02:49:54;100032.47;;;11.63;58.50
77106;BME280;66057;54.718;18.426;2023-05-16T02:52:44;100024.84;;;11.67;58.95
77106;BME280;66057;54.718;18.426;2023-05-16T02:55:12;100030.00;;;11.67;60.31
77106;BME280;66057;54.718;18.426;2023-05-16T02:57:44;100014.50;;;11.66;60.15
77106;BME280;66057;54.718;18.426;2023-05-16T03:00:20;100023.16;;;11.68;61.11
77106;BME280;66057;54.718;18.426;2023-05-16T03:02:49;100023.09;;;11.65;61.77
77106;BME280;66057;54.718;18.426;2023-05-16T03:05:16;100020.53;;;11.65;61.60
77106;BME280;66057;54.718;18.426;2023-05-16T03:07:41;100019.75;;;11.69;60.88
77106;BME280;66057;54.718;18.426;2023-05-16T03:10:08;100022.41;;;11.72;61.87
77106;BME280;66057;54.718;18.426;2023-05-16T03:12:44;100024.19;;;11.73;62.06
77106;BME280;66057;54.718;18.426;2023-05-16T03:18:22;100030.94;;;11.71;62.83
77106;BME280;66057;54.718;18.426;2023-05-16T03:20:55;100031.81;;;11.70;63.70
77106;BME280;66057;54.718;18.426;2023-05-16T03:23:27;100033.66;;;11.74;64.03
77106;BME280;66057;54.718;18.426;2023-05-16T03:25:54;100039.69;;;11.74;62.71
77106;BME280;66057;54.718;18.426;2023-05-16T03:28:20;100036.28;;;11.77;64.33
77106;BME280;66057;54.718;18.426;2023-05-16T03:30:46;100036.19;;;11.72;63.88
77106;BME280;66057;54.718;18.426;2023-05-16T03:33:18;100037.16;;;11.77;63.81
77106;BME280;66057;54.718;18.426;2023-05-16T03:35:48;100038.91;;;11.78;64.61
77106;BME280;66057;54.718;18.426;2023-05-16T03:38:15;100041.50;;;11.80;65.27
77106;BME280;66057;54.718;18.426;2023-05-16T03:40:52;100044.22;;;11.86;66.41
77106;BME280;66057;54.718;18.426;2023-05-16T03:43:18;100046.81;;;11.86;68.41
77106;BME280;66057;54.718;18.426;2023-05-16T03:45:44;100045.88;;;11.83;78.32
77106;BME280;66057;54.718;18.426;2023-05-16T03:48:10;100051.78;;;11.80;78.90
77106;BME280;66057;54.718;18.426;2023-05-16T03:50:36;100055.81;;;11.70;78.23
77106;BME280;66057;54.718;18.426;2023-05-16T03:53:02;100060.75;;;11.61;77.51
77106;BME280;66057;54.718;18.426;2023-05-16T03:55:32;100067.28;;;11.49;77.27
77106;BME280;66057;54.718;18.426;2023-05-16T03:57:58;100068.88;;;11.44;78.79
77106;BME280;66057;54.718;18.426;2023-05-16T04:00:25;100069.47;;;11.33;79.33
77106;BME280;66057;54.718;18.426;2023-05-16T04:02:51;100064.25;;;11.30;79.50
77106;BME280;66057;54.718;18.426;2023-05-16T04:05:17;100077.88;;;11.28;79.96
77106;BME280;66057;54.718;18.426;2023-05-16T04:07:49;100087.97;;;11.20;79.27
77106;BME280;66057;54.718;18.426;2023-05-16T04:10:15;100079.31;;;11.17;80.00
77106;BME280;66057;54.718;18.426;2023-05-16T04:12:41;100083.59;;;11.18;79.24
77106;BME280;66057;54.718;18.426;2023-05-16T04:15:09;100088.38;;;11.04;78.55
77106;BME280;66057;54.718;18.426;2023-05-16T04:17:35;100089.28;;;11.06;76.98
77106;BME280;66057;54.718;18.426;2023-05-16T04:20:02;100092.69;;;11.05;77.43
77106;BME280;66057;54.718;18.426;2023-05-16T04:22:29;100097.00;;;11.06;77.07
77106;BME280;66057;54.718;18.426;2023-05-16T04:24:55;100111.38;;;10.98;77.47
77106;BME280;66057;54.718;18.426;2023-05-16T04:27:21;100102.72;;;10.96;77.07
77106;BME280;66057;54.718;18.426;2023-05-16T04:29:51;100105.28;;;10.96;76.15
77106;BME280;66057;54.718;18.426;2023-05-16T04:32:28;100111.31;;;10.97;75.53
77106;BME280;66057;54.718;18.426;2023-05-16T04:34:55;100115.13;;;10.81;77.05
77106;BME280;66057;54.718;18.426;2023-05-16T04:37:21;100117.44;;;10.72;76.50
77106;BME280;66057;54.718;18.426;2023-05-16T04:39:50;100113.25;;;10.75;76.48
77106;BME280;66057;54.718;18.426;2023-05-16T04:42:22;100117.69;;;10.81;76.46
77106;BME280;66057;54.718;18.426;2023-05-16T04:44:50;100113.94;;;10.70;77.96
77106;BME280;66057;54.718;18.426;2023-05-16T04:47:17;100115.69;;;10.71;77.45
77106;BME280;66057;54.718;18.426;2023-05-16T04:49:49;100119.78;;;10.64;76.77
77106;BME280;66057;54.718;18.426;2023-05-16T04:52:15;100125.63;;;10.59;75.52
77106;BME280;66057;54.718;18.426;2023-05-16T04:54:41;100118.81;;;10.61;74.76
77106;BME280;66057;54.718;18.426;2023-05-16T04:57:09;100130.06;;;10.37;74.49
77106;BME280;66057;54.718;18.426;2023-05-16T04:59:35;100122.47;;;10.40;61.15
77106;BME280;66057;54.718;18.426;2023-05-16T05:02:03;100130.88;;;10.35;62.29
77106;BME280;66057;54.718;18.426;2023-05-16T05:04:30;100133.38;;;10.33;61.88
77106;BME280;66057;54.718;18.426;2023-05-16T05:06:55;100134.72;;;10.22;61.39
77106;BME280;66057;54.718;18.426;2023-05-16T05:09:25;100137.13;;;10.16;60.95
77106;BME280;66057;54.718;18.426;2023-05-16T05:11:51;100137.16;;;10.18;59.46
77106;BME280;66057;54.718;18.426;2023-05-16T05:14:22;100135.47;;;10.18;59.03
77106;BME280;66057;54.718;18.426;2023-05-16T05:16:49;100133.75;;;10.19;58.34
77106;BME280;66057;54.718;18.426;2023-05-16T05:19:15;100141.63;;;10.23;58.57
77106;BME280;66057;54.718;18.426;2023-05-16T05:21:41;100143.22;;;10.20;58.61
77106;BME280;66057;54.718;18.426;2023-05-16T05:24:08;100134.63;;;10.19;61.36
77106;BME280;66057;54.718;18.426;2023-05-16T05:26:39;100149.81;;;10.13;61.57
77106;BME280;66057;54.718;18.426;2023-05-16T05:29:16;100150.88;;;10.18;59.65
77106;BME280;66057;54.718;18.426;2023-05-16T05:31:42;100149.19;;;10.19;59.19
77106;BME280;66057;54.718;18.426;2023-05-16T05:34:08;100145.69;;;10.17;58.25
77106;BME280;66057;54.718;18.426;2023-05-16T05:36:35;100151.81;;;10.20;57.59
77106;BME280;66057;54.718;18.426;2023-05-16T05:39:01;100150.88;;;10.18;57.27
77106;BME280;66057;54.718;18.426;2023-05-16T05:41:30;100163.91;;;10.24;57.36
77106;BME280;66057;54.718;18.426;2023-05-16T05:43:59;100153.72;;;10.27;57.94
77106;BME280;66057;54.718;18.426;2023-05-16T05:46:27;100153.84;;;10.30;58.60
77106;BME280;66057;54.718;18.426;2023-05-16T05:48:54;100154.81;;;10.34;59.06
77106;BME280;66057;54.718;18.426;2023-05-16T05:51:23;100153.94;;;10.33;60.32
77106;BME280;66057;54.718;18.426;2023-05-16T05:53:49;100151.44;;;10.35;60.97
77106;BME280;66057;54.718;18.426;2023-05-16T05:56:15;100155.88;;;10.40;60.75
77106;BME280;66057;54.718;18.426;2023-05-16T05:58:41;100154.41;;;10.48;60.08
77106;BME280;66057;54.718;18.426;2023-05-16T06:01:07;100157.88;;;10.50;60.08
77106;BME280;66057;54.718;18.426;2023-05-16T06:03:35;100158.59;;;10.45;60.89
77106;BME280;66057;54.718;18.426;2023-05-16T06:06:02;100166.31;;;10.45;63.03
77106;BME280;66057;54.718;18.426;2023-05-16T06:08:29;100175.06;;;10.52;66.53
77106;BME280;66057;54.718;18.426;2023-05-16T06:10:54;100182.84;;;10.53;69.63
77106;BME280;66057;54.718;18.426;2023-05-16T06:13:23;100183.78;;;10.57;74.21
77106;BME280;66057;54.718;18.426;2023-05-16T06:15:50;100171.97;;;10.62;75.16
77106;BME280;66057;54.718;18.426;2023-05-16T06:18:17;100185.00;;;10.68;75.94
77106;BME280;66057;54.718;18.426;2023-05-16T06:20:45;100177.63;;;10.78;76.70
77106;BME280;66057;54.718;18.426;2023-05-16T06:23:11;100193.75;;;10.74;77.70
77106;BME280;66057;54.718;18.426;2023-05-16T06:25:37;100215.91;;;10.69;77.75
77106;BME280;66057;54.718;18.426;2023-05-16T06:28:08;100209.91;;;10.69;75.77
77106;BME280;66057;54.718;18.426;2023-05-16T06:30:34;100219.19;;;10.65;74.96
77106;BME280;66057;54.718;18.426;2023-05-16T06:33:00;100237.31;;;10.70;75.32
77106;BME280;66057;54.718;18.426;2023-05-16T06:35:29;100264.19;;;10.53;74.48
77106;BME280;66057;54.718;18.426;2023-05-16T06:37:55;100252.81;;;10.46;69.90
77106;BME280;66057;54.718;18.426;2023-05-16T06:40:21;100251.75;;;10.39;66.68
77106;BME280;66057;54.718;18.426;2023-05-16T06:42:46;100267.59;;;10.26;65.98
77106;BME280;66057;54.718;18.426;2023-05-16T06:45:12;100271.00;;;10.27;61.66
77106;BME280;66057;54.718;18.426;2023-05-16T06:47:40;100289.53;;;10.17;62.99
77106;BME280;66057;54.718;18.426;2023-05-16T06:50:07;100311.56;;;10.12;62.52
77106;BME280;66057;54.718;18.426;2023-05-16T06:52:33;100289.06;;;10.04;60.68
77106;BME280;66057;54.718;18.426;2023-05-16T06:54:58;100303.81;;;10.10;59.47
77106;BME280;66057;54.718;18.426;2023-05-16T06:57:25;100307.28;;;10.12;59.52
77106;BME280;66057;54.718;18.426;2023-05-16T06:59:50;100312.41;;;10.12;59.52
77106;BME280;66057;54.718;18.426;2023-05-16T07:02:37;100327.06;;;10.15;59.53
77106;BME280;66057;54.718;18.426;2023-05-16T07:05:06;100330.72;;;10.20;59.32
77106;BME280;66057;54.718;18.426;2023-05-16T07:07:35;100340.50;;;10.30;62.81
77106;BME280;66057;54.718;18.426;2023-05-16T07:10:02;100337.38;;;10.38;65.54
77106;BME280;66057;54.718;18.426;2023-05-16T07:12:28;100383.63;;;10.38;73.05
77106;BME280;66057;54.718;18.426;2023-05-16T07:14:54;100346.88;;;10.41;75.89
77106;BME280;66057;54.718;18.426;2023-05-16T07:17:24;100381.31;;;10.46;77.57
77106;BME280;66057;54.718;18.426;2023-05-16T07:19:50;100382.56;;;10.33;78.29
77106;BME280;66057;54.718;18.426;2023-05-16T07:22:17;100379.34;;;10.39;77.92
77106;BME280;66057;54.718;18.426;2023-05-16T07:24:44;100409.22;;;10.35;78.80
77106;BME280;66057;54.718;18.426;2023-05-16T07:27:10;100400.41;;;10.29;76.85
77106;BME280;66057;54.718;18.426;2023-05-16T07:29:37;100419.31;;;10.31;75.92
77106;BME280;66057;54.718;18.426;2023-05-16T07:32:04;100413.34;;;10.32;75.57
77106;BME280;66057;54.718;18.426;2023-05-16T07:34:30;100387.97;;;10.41;69.64
77106;BME280;66057;54.718;18.426;2023-05-16T07:36:58;100415.66;;;10.48;68.59
77106;BME280;66057;54.718;18.426;2023-05-16T07:39:23;100422.97;;;10.61;73.05
77106;BME280;66057;54.718;18.426;2023-05-16T07:41:50;100399.25;;;10.70;74.98
77106;BME280;66057;54.718;18.426;2023-05-16T07:44:16;100426.22;;;10.81;75.20
77106;BME280;66057;54.718;18.426;2023-05-16T07:46:42;100411.75;;;10.83;77.15
77106;BME280;66057;54.718;18.426;2023-05-16T07:49:11;100418.16;;;10.96;77.12
77106;BME280;66057;54.718;18.426;2023-05-16T07:51:45;100414.91;;;11.01;77.82
77106;BME280;66057;54.718;18.426;2023-05-16T07:54:14;100445.50;;;10.93;78.35
77106;BME280;66057;54.718;18.426;2023-05-16T07:56:48;100443.56;;;10.86;77.10
77106;BME280;66057;54.718;18.426;2023-05-16T07:59:14;100448.06;;;10.93;74.76
77106;BME280;66057;54.718;18.426;2023-05-16T08:01:40;100431.81;;;10.93;76.46
77106;BME280;66057;54.718;18.426;2023-05-16T08:04:06;100450.34;;;11.10;77.18
77106;BME280;66057;54.718;18.426;2023-05-16T08:06:32;100447.03;;;11.12;77.72
77106;BME280;66057;54.718;18.426;2023-05-16T08:09:01;100459.25;;;11.19;79.26
77106;BME280;66057;54.718;18.426;2023-05-16T08:11:30;100457.81;;;11.27;79.05
77106;BME280;66057;54.718;18.426;2023-05-16T08:13:56;100462.53;;;11.41;80.31
77106;BME280;66057;54.718;18.426;2023-05-16T08:16:25;100479.97;;;11.49;81.88
77106;BME280;66057;54.718;18.426;2023-05-16T08:18:51;100495.06;;;11.64;82.79
77106;BME280;66057;54.718;18.426;2023-05-16T08:21:17;100487.72;;;11.74;82.67
77106;BME280;66057;54.718;18.426;2023-05-16T08:23:49;100493.13;;;11.84;83.98
77106;BME280;66057;54.718;18.426;2023-05-16T08:26:16;100500.47;;;11.98;84.00
77106;BME280;66057;54.718;18.426;2023-05-16T08:28:42;100503.22;;;12.04;83.42
77106;BME280;66057;54.718;18.426;2023-05-16T08:31:08;100502.31;;;12.02;82.73
77106;BME280;66057;54.718;18.426;2023-05-16T08:33:33;100509.44;;;12.11;83.32
77106;BME280;66057;54.718;18.426;2023-05-16T08:36:00;100502.38;;;12.05;84.73
77106;BME280;66057;54.718;18.426;2023-05-16T08:38:26;100532.06;;;11.93;84.08
77106;BME280;66057;54.718;18.426;2023-05-16T08:40:52;100542.63;;;11.75;81.52
77106;BME280;66057;54.718;18.426;2023-05-16T08:43:18;100542.50;;;11.72;84.03
77106;BME280;66057;54.718;18.426;2023-05-16T08:45:45;100531.31;;;11.71;82.15
77106;BME280;66057;54.718;18.426;2023-05-16T08:48:10;100529.72;;;11.73;82.35
77106;BME280;66057;54.718;18.426;2023-05-16T08:50:37;100529.50;;;11.93;84.06
77106;BME280;66057;54.718;18.426;2023-05-16T08:53:06;100527.00;;;11.96;84.81
77106;BME280;66057;54.718;18.426;2023-05-16T08:55:34;100546.94;;;12.01;85.61
77106;BME280;66057;54.718;18.426;2023-05-16T08:57:59;100555.69;;;12.06;85.53
77106;BME280;66057;54.718;18.426;2023-05-16T09:00:27;100544.34;;;12.01;85.94
77106;BME280;66057;54.718;18.426;2023-05-16T09:02:56;100552.59;;;11.91;84.06
77106;BME280;66057;54.718;18.426;2023-05-16T09:05:22;100563.09;;;11.72;81.89
77106;BME280;66057;54.718;18.426;2023-05-16T09:07:50;100578.16;;;11.60;82.01
77106;BME280;66057;54.718;18.426;2023-05-16T09:10:16;100581.25;;;11.50;80.27
77106;BME280;66057;54.718;18.426;2023-05-16T09:12:45;100582.13;;;11.50;79.37
77106;BME280;66057;54.718;18.426;2023-05-16T09:15:11;100581.34;;;11.53;81.72
77106;BME280;66057;54.718;18.426;2023-05-16T09:17:42;100578.09;;;11.58;81.76
77106;BME280;66057;54.718;18.426;2023-05-16T09:20:12;100581.78;;;11.66;81.30
77106;BME280;66057;54.718;18.426;2023-05-16T09:22:51;100587.75;;;11.89;83.28
77106;BME280;66057;54.718;18.426;2023-05-16T09:25:18;100602.13;;;12.09;85.55
77106;BME280;66057;54.718;18.426;2023-05-16T09:27:52;100588.19;;;12.30;86.24
77106;BME280;66057;54.718;18.426;2023-05-16T09:30:44;100589.41;;;12.42;88.05
77106;BME280;66057;54.718;18.426;2023-05-16T09:33:07;100593.25;;;12.55;87.93
77106;BME280;66057;54.718;18.426;2023-05-16T09:35:33;100591.22;;;12.73;89.40
77106;BME280;66057;54.718;18.426;2023-05-16T09:37:58;100591.88;;;12.96;86.26
77106;BME280;66057;54.718;18.426;2023-05-16T09:40:25;100589.38;;;13.29;86.22
77106;BME280;66057;54.718;18.426;2023-05-16T09:43:04;100590.38;;;13.34;85.18
77106;BME280;66057;54.718;18.426;2023-05-16T09:45:32;100587.53;;;13.23;85.44
77106;BME280;66057;54.718;18.426;2023-05-16T09:48:06;100601.59;;;13.34;85.50
77106;BME280;66057;54.718;18.426;2023-05-16T09:50:33;100602.41;;;13.32;84.86
77106;BME280;66057;54.718;18.426;2023-05-16T09:53:00;100600.94;;;13.41;85.75
77106;BME280;66057;54.718;18.426;2023-05-16T09:55:26;100602.47;;;13.35;85.11
77106;BME280;66057;54.718;18.426;2023-05-16T09:57:52;100599.34;;;13.15;85.25
77106;BME280;66057;54.718;18.426;2023-05-16T10:00:18;100613.50;;;12.99;84.71
77106;BME280;66057;54.718;18.426;2023-05-16T10:02:44;100625.28;;;12.90;84.16
77106;BME280;66057;54.718;18.426;2023-05-16T10:05:14;100643.91;;;12.81;84.67
77106;BME280;66057;54.718;18.426;2023-05-16T10:07:44;100639.63;;;12.82;84.23
77106;BME280;66057;54.718;18.426;2023-05-16T10:10:11;100627.94;;;12.93;84.71
77106;BME280;66057;54.718;18.426;2023-05-16T10:12:38;100641.22;;;13.06;84.79
77106;BME280;66057;54.718;18.426;2023-05-16T10:15:06;100654.81;;;13.29;85.63
77106;BME280;66057;54.718;18.426;2023-05-16T10:17:38;100640.78;;;13.51;85.27
77106;BME280;66057;54.718;18.426;2023-05-16T10:20:09;100652.44;;;13.68;85.67
77106;BME280;66057;54.718;18.426;2023-05-16T10:22:42;100661.06;;;14.02;85.49
77106;BME280;66057;54.718;18.426;2023-05-16T10:27:49;100669.16;;;14.15;85.01
77106;BME280;66057;54.718;18.426;2023-05-16T10:30:16;100676.41;;;14.30;84.88
77106;BME280;66057;54.718;18.426;2023-05-16T10:32:43;100680.69;;;14.28;85.18
77106;BME280;66057;54.718;18.426;2023-05-16T10:35:09;100689.19;;;13.89;85.03
77106;BME280;66057;54.718;18.426;2023-05-16T10:37:35;100687.31;;;13.84;84.93
77106;BME280;66057;54.718;18.426;2023-05-16T10:40:06;100698.59;;;13.87;85.49
77106;BME280;66057;54.718;18.426;2023-05-16T10:42:36;100697.09;;;13.95;85.30
77106;BME280;66057;54.718;18.426;2023-05-16T10:45:17;100691.41;;;14.09;84.88
77106;BME280;66057;54.718;18.426;2023-05-16T10:50:38;100698.50;;;14.17;84.29
77106;BME280;66057;54.718;18.426;2023-05-16T10:53:21;100723.94;;;14.35;84.28
77106;BME280;66057;54.718;18.426;2023-05-16T11:06:24;100682.09;;;14.87;81.30
77106;BME280;66057;54.718;18.426;2023-05-16T11:12:02;100684.31;;;14.70;80.83
77106;BME280;66057;54.718;18.426;2023-05-16T11:14:42;100703.97;;;14.62;80.67
77106;BME280;66057;54.718;18.426;2023-05-16T11:17:10;100680.75;;;14.65;80.48
77106;BME280;66057;54.718;18.426;2023-05-16T11:19:54;100689.59;;;14.75;79.85
77106;BME280;66057;54.718;18.426;2023-05-16T11:22:28;100707.88;;;14.82;80.41
77106;BME280;66057;54.718;18.426;2023-05-16T11:25:20;100697.84;;;15.37;80.14
77106;BME280;66057;54.718;18.426;2023-05-16T11:28:20;100691.63;;;15.30;79.19
77106;BME280;66057;54.718;18.426;2023-05-16T11:30:53;100710.81;;;15.38;79.47
77106;BME280;66057;54.718;18.426;2023-05-16T11:33:23;100704.38;;;15.58;78.14
77106;BME280;66057;54.718;18.426;2023-05-16T11:38:34;100722.50;;;14.82;79.00
77106;BME280;66057;54.718;18.426;2023-05-16T11:41:07;100733.84;;;14.86;79.32
77106;BME280;66057;54.718;18.426;2023-05-16T11:43:44;100755.06;;;14.71;80.29
77106;BME280;66057;54.718;18.426;2023-05-16T11:46:14;100759.34;;;14.70;80.06
77106;BME280;66057;54.718;18.426;2023-05-16T11:48:41;100736.47;;;14.51;79.80
77106;BME280;66057;54.718;18.426;2023-05-16T11:51:08;100764.81;;;14.47;80.29
77106;BME280;66057;54.718;18.426;2023-05-16T11:53:48;100786.59;;;14.56;79.71
77106;BME280;66057;54.718;18.426;2023-05-16T11:56:16;100790.00;;;14.55;80.60
77106;BME280;66057;54.718;18.426;2023-05-16T11:58:43;100812.38;;;14.53;79.93
77106;BME280;66057;54.718;18.426;2023-05-16T12:01:10;100808.88;;;14.51;80.24
77106;BME280;66057;54.718;18.426;2023-05-16T12:03:36;100830.78;;;14.32;80.27
77106;BME280;66057;54.718;18.426;2023-05-16T12:06:03;100830.84;;;14.35;80.64
77106;BME280;66057;54.718;18.426;2023-05-16T12:08:31;100826.81;;;14.45;80.43
77106;BME280;66057;54.718;18.426;2023-05-16T12:10:58;100830.34;;;14.47;80.52
77106;BME280;66057;54.718;18.426;2023-05-16T12:13:32;100832.56;;;14.35;80.86
77106;BME280;66057;54.718;18.426;2023-05-16T12:15:58;100835.34;;;14.10;80.39
77106;BME280;66057;54.718;18.426;2023-05-16T12:18:29;100831.19;;;13.86;80.91
77106;BME280;66057;54.718;18.426;2023-05-16T12:21:01;100839.63;;;13.79;81.17
77106;BME280;66057;54.718;18.426;2023-05-16T12:23:33;100836.16;;;13.79;80.72
77106;BME280;66057;54.718;18.426;2023-05-16T12:26:04;100844.59;;;13.73;81.24
77106;BME280;66057;54.718;18.426;2023-05-16T12:28:57;100825.16;;;13.56;81.01
77106;BME280;66057;54.718;18.426;2023-05-16T12:31:30;100852.22;;;13.69;80.99
77106;BME280;66057;54.718;18.426;2023-05-16T12:34:00;100842.22;;;13.79;81.15
77106;BME280;66057;54.718;18.426;2023-05-16T12:36:31;100861.69;;;13.68;81.12
77106;BME280;66057;54.718;18.426;2023-05-16T12:39:02;100858.53;;;13.78;81.63
77106;BME280;66057;54.718;18.426;2023-05-16T12:41:32;100855.50;;;13.35;81.64
77106;BME280;66057;54.718;18.426;2023-05-16T12:44:11;100879.59;;;13.08;82.23
77106;BME280;66057;54.718;18.426;2023-05-16T12:46:48;100868.97;;;12.99;82.97
77106;BME280;66057;54.718;18.426;2023-05-16T12:49:14;100876.28;;;12.87;82.75
77106;BME280;66057;54.718;18.426;2023-05-16T12:51:50;100888.06;;;12.79;82.64
77106;BME280;66057;54.718;18.426;2023-05-16T12:54:22;100881.09;;;12.51;82.74
77106;BME280;66057;54.718;18.426;2023-05-16T12:56:48;100890.94;;;12.39;83.07
77106;BME280;66057;54.718;18.426;2023-05-16T12:59:14;100891.03;;;12.41;83.52
77106;BME280;66057;54.718;18.426;2023-05-16T13:01:43;100908.50;;;12.26;84.23
77106;BME280;66057;54.718;18.426;2023-05-16T13:04:11;100923.47;;;12.12;83.00
77106;BME280;66057;54.718;18.426;2023-05-16T13:06:41;100890.13;;;12.16;83.53
77106;BME280;66057;54.718;18.426;2023-05-16T13:09:07;100883.69;;;12.28;83.45
77106;BME280;66057;54.718;18.426;2023-05-16T13:11:34;100886.63;;;12.14;83.21
77106;BME280;66057;54.718;18.426;2023-05-16T13:14:00;100901.69;;;12.04;83.05
77106;BME280;66057;54.718;18.426;2023-05-16T13:16:28;100899.16;;;12.05;84.03
77106;BME280;66057;54.718;18.426;2023-05-16T13:18:58;100902.47;;;12.01;83.06
77106;BME280;66057;54.718;18.426;2023-05-16T13:21:23;100916.78;;;11.95;83.66
77106;BME280;66057;54.718;18.426;2023-05-16T13:23:50;100940.09;;;11.75;82.81
77106;BME280;66057;54.718;18.426;2023-05-16T13:26:19;100967.41;;;11.72;84.24